Etusivu
METAR-TAF:

METAR-TAF

Lentoasemat :

Tindouf, Algeria

Leveyspiiri: 27-40N, Pituuspiiri: 008-08W, korkeus merenpinnasta: 431 m

Tämänhetkinen sää

Tämä raportti tehtiin 1 tunti ja 5 minuuttia sitten, kello 23.00 UTC
Tuuli 12 kn luoteesta
Lämpötila 33°C
Kosteus 17%
Ilmanpaine 1018 hPa
Näkyvyys: 8000 m
Muutamia pilviä 3000 ft:n korkeudessa, Cumulonimbus.
Hajonneita pilviä 4600 ft:n korkeudessa

METAR: DAOF 242300Z 32012KT 8000 FEW030CB BKN046 33/05 Q1018

Aika: 01:05 (00:05 UTC)

Sääennuste

Tämä raportti tehtiin 1 tunti ja 5 minuuttia sitten, kello 23.00 UTC
Ennuste voimassa 25. päivästä klo 00 UTC - 25. päivään klo 09 UTC
Tuuli 12 kn luoteesta
Näkyvyys: 8000 m
Hajanaisia pilviä 4600 ft:n korkeudessa
Ajoittain
25. päivästä klo 00 UTC - 25. päivään klo 03 UTC
Muutamia pilviä 3000 ft:n korkeudessa, Cumulonimbus.

TAF: DAOF 242300Z 2500/2509 32012KT 8000 SCT046 TEMPO 2500/2503 FEW030CB

Säähavainnot ja -ennusteet yli 4000 lentoasemalta (METAR- ja TAF-raportit).

Käytössä olevat sääasemat on merkitty karttaan keltaisilla ja punaisilla pisteillä.

Aseta hiiri pisteen päälle nähdäksesi sääaseman nimen.

Klikkaa sitten nähdäksesi säähavainnot ja -ennusteet.

Kartan vaihtaminen: klikkaa mustalla rastilla varustettuja vihreitä pisteitä, niin voit zoomata sisään; viivalla varustettua vihreää pistettä, niin voit zoomata ulos tai vihreitä nuolia, niin pääset viereisille kartoille.


METAR-TAF: